Terminal Aerodrome Forecast
Issued by NWS Northern Indiana

Home | Current Version | Previous Version | Text Only | Print | Product List | Glossary On
Versions: 1 2 3 4 5 6 7 8 9 10 11 12 13 14
347
FTUS43 KIWX 110217 AAA
TAFFWA
TAF AMD
KFWA 110217Z 1102/1124 21006KT 2SM -SN OVC025
     FM110500 16005KT 1 1/2SM -SN BR OVC015
     FM111100 14008KT 3SM -SN BR OVC025
     FM112100 17011KT 1/2SM SN FG OVC007=

USA.gov is the U.S. government's official web portal to all federal, state and local government web resources and services.